West Yellowstone, MT

7:55 AM MDT on March 27, 2017 (GMT -0600)
Yellowstone | | Change Station

Elev 6650 ft 44.69 °N, 111.12 °W | Updated 45 minutes ago

Light Snow
Light Snow
32 °F
Feels Like 32 °F
N
0
Wind Variable Wind from North

Today
High -- | Low -- °F
--% Chance of Precip.
Yesterday
High -- | Low -- °F
Precip. -- in
Pressure 29.88 in
Visibility 5.0 miles
Clouds Mostly Cloudy 1300 ft
Mostly Cloudy 1900 ft
Overcast 7000 ft
Dew Point 32 °F
Humidity 100%
Rainfall 0.07 in
Snow Depth Not available.
7:13 AM 7:46 PM
Waning Crescent, 0% visible
METAR KWYS 271310Z AUTO 00000KT 5SM -SN BKN013 BKN019 OVC070 00/00 A2988 RMK AO2
Pressure 29.88 in
Visibility 5.0 miles
Clouds Mostly Cloudy 1300 ft
Mostly Cloudy 1900 ft
Overcast 7000 ft
Dew Point 32 °F
Humidity 100%
Rainfall 0.07 in
Snow Depth Not available.
7:13 AM 7:46 PM
Waning Crescent, 0% visible
METAR KWYS 271310Z AUTO 00000KT 5SM -SN BKN013 BKN019 OVC070 00/00 A2988 RMK AO2

Get Severe Weather Alerts

Thanks for signing up!

Be on the lookout for a verification email in your inbox.

You'll start receiving the daily forecast at 8 AM.

×

10-Day Weather Forecast

Almanac

Astronomy

Mar. 27, 2017 Rise Set
Actual Time
Civil Twilight
Nautical Twilight
Astronomical Twilight
Moon
Length of Visible Light
Length of Day
Tomorrow will be .
, % of the Moon is Illuminated

Today's Extremes

State Highs State Lows

Community

WunderPhotos

Upload Photos

1,962,540 photos uploaded!

WunderBlog® & News

Nearby

Air Quality

  Air Quality AQ Index Pollutant
Not available.

Snow Depth

Station Depth Elevation

Earthquake Activity

City Distance Mag. Time & Date
Minimum magnitude displayed is 2.5.

Earthquake Activity

City Distance Mag. Time & Date
Minimum magnitude displayed is 2.5.

Coastal Water Temperatures

Place Temperature

Stations

Nearby Weather Stations

Station Location Temp. Windchill Dew Point Humidity Wind Precip. Elev Updated Type
                   

Watches & Warnings

There are currently no watches in effect.